Time;durP1;ratioP1;P1;durP2;ratioP2;P2;SDS_P1;SDS_P2;PMS_P1;PMS_P2;Temp;Humidity;BMP_temperature;BMP_pressure;BME280_temperature;BME280_humidity;BME280_pressure;Samples;Min_cycle;Max_cycle;Signal;HPM_P1;HPM_P2
2021/07/28 00:00:05;;;;;;;8.07;6.72;;;19.90;99.90;;;;;;5083412;28;20380;-86
2021/07/28 00:02:31;;;;;;;9.48;7.85;;;19.70;99.90;;;;;;5091375;28;20373;-87
2021/07/28 00:04:56;;;;;;;9.13;7.80;;;19.60;99.90;;;;;;5088398;28;20524;-87
2021/07/28 00:07:22;;;;;;;10.32;8.10;;;19.50;99.90;;;;;;5073091;28;20375;-85
2021/07/28 00:09:47;;;;;;;10.93;7.90;;;19.40;99.90;;;;;;5091048;28;20857;-87
2021/07/28 00:12:13;;;;;;;8.85;7.65;;;19.30;99.90;;;;;;5072993;28;20407;-85
2021/07/28 00:14:39;;;;;;;9.40;7.47;;;19.20;99.90;;;;;;5091223;28;20385;-87
2021/07/28 00:17:07;;;;;;;9.20;7.60;;;19.20;99.90;;;;;;5072703;28;20450;-86
2021/07/28 00:19:51;;;;;;;9.77;7.53;;;19.10;99.90;;;;;;5075228;28;20869;-87
2021/07/28 00:25:06;;;;;;;8.85;7.50;;;19.00;99.90;;;;;;5052179;28;20835;-85
2021/07/28 00:27:34;;;;;;;9.20;7.73;;;19.00;99.90;;;;;;5072706;28;20406;-87
2021/07/28 00:30:00;;;;;;;11.65;8.32;;;18.90;99.90;;;;;;5073367;28;20892;-84
2021/07/28 00:32:25;;;;;;;9.40;8.40;;;19.00;99.90;;;;;;5073543;28;20475;-86
2021/07/28 00:34:51;;;;;;;13.10;8.50;;;18.80;99.90;;;;;;5091435;28;20917;-85
2021/07/28 00:37:16;;;;;;;9.60;8.57;;;18.80;99.90;;;;;;5073434;28;20369;-85
2021/07/28 00:39:42;;;;;;;13.23;9.00;;;18.70;99.90;;;;;;5073166;28;20361;-86
2021/07/28 00:42:07;;;;;;;8.53;7.73;;;18.70;99.90;;;;;;5073350;28;20372;-85
2021/07/28 00:44:33;;;;;;;9.40;8.25;;;18.60;99.90;;;;;;5073290;28;20379;-86
2021/07/28 00:46:58;;;;;;;10.83;8.67;;;18.40;99.90;;;;;;5073343;28;20901;-86
2021/07/28 00:49:24;;;;;;;10.23;8.80;;;18.30;99.90;;;;;;5073185;28;20381;-86
2021/07/28 00:51:51;;;;;;;12.63;8.67;;;18.20;99.90;;;;;;5091036;28;20396;-85
2021/07/28 00:54:17;;;;;;;9.85;8.85;;;18.10;99.90;;;;;;5072883;28;20834;-86
2021/07/28 00:56:43;;;;;;;11.50;8.90;;;18.00;99.90;;;;;;5073096;28;20385;-86
2021/07/28 00:59:09;;;;;;;9.43;8.53;;;17.90;99.90;;;;;;5091012;28;20375;-87
2021/07/28 01:01:37;;;;;;;10.73;8.50;;;17.90;99.90;;;;;;5072969;28;20379;-87
2021/07/28 01:04:02;;;;;;;9.38;8.38;;;17.80;99.90;;;;;;5073015;28;20957;-85
2021/07/28 01:06:30;;;;;;;10.40;8.82;;;17.80;99.90;;;;;;5072492;28;20455;-87
2021/07/28 01:08:55;;;;;;;11.40;8.80;;;17.70;99.90;;;;;;5091367;28;20372;-86
2021/07/28 01:11:26;;;;;;;9.20;8.35;;;17.60;99.90;;;;;;5072849;28;20968;-85
2021/07/28 01:13:52;;;;;;;11.85;9.32;;;17.60;99.90;;;;;;5091035;28;20408;-86
2021/07/28 01:16:23;;;;;;;9.65;8.65;;;17.60;99.90;;;;;;5072612;28;20407;-86
2021/07/28 01:18:50;;;;;;;10.48;8.80;;;17.60;99.90;;;;;;5072281;28;20381;-85
2021/07/28 01:21:17;;;;;;;11.13;9.38;;;17.50;99.90;;;;;;5072689;28;20408;-85
2021/07/28 01:23:43;;;;;;;13.73;9.30;;;17.50;99.90;;;;;;5072660;28;20383;-86
2021/07/28 01:26:09;;;;;;;9.70;8.70;;;17.50;99.90;;;;;;5072668;28;20383;-87
2021/07/28 01:28:37;;;;;;;9.80;8.80;;;17.40;99.90;;;;;;5090681;28;20747;-85
2021/07/28 01:31:06;;;;;;;11.10;9.13;;;17.40;99.90;;;;;;5072776;28;20384;-86
2021/07/28 01:33:37;;;;;;;12.57;9.32;;;17.40;99.90;;;;;;5072583;28;20423;-85
2021/07/28 01:36:08;;;;;;;11.57;9.10;;;17.40;99.90;;;;;;5072793;28;20376;-86
2021/07/28 01:38:35;;;;;;;51.05;11.20;;;17.40;99.90;;;;;;5072867;28;20888;-86
2021/07/28 01:41:03;;;;;;;65.63;13.60;;;17.30;99.90;;;;;;5090637;28;20432;-85
2021/07/28 01:43:29;;;;;;;15.27;9.13;;;17.30;99.90;;;;;;5090783;28;20937;-87
2021/07/28 01:45:56;;;;;;;13.85;9.50;;;17.20;99.90;;;;;;5072618;28;20472;-85
2021/07/28 01:48:22;;;;;;;10.20;9.10;;;17.10;99.90;;;;;;5090905;28;20372;-85
2021/07/28 01:50:48;;;;;;;10.18;9.13;;;17.00;99.90;;;;;;5072616;28;20716;-87
2021/07/28 01:53:14;;;;;;;12.30;9.70;;;17.00;99.90;;;;;;5072649;28;20419;-87
2021/07/28 01:55:41;;;;;;;11.30;9.52;;;17.00;99.90;;;;;;5072960;28;20434;-86
2021/07/28 01:58:07;;;;;;;9.75;8.77;;;17.00;99.90;;;;;;5072454;28;20405;-85
2021/07/28 02:00:33;;;;;;;12.52;9.35;;;17.00;99.90;;;;;;5072340;28;20415;-86
2021/07/28 02:03:05;;;;;;;10.20;9.17;;;17.10;99.90;;;;;;5072254;28;20408;-86
2021/07/28 02:05:34;;;;;;;10.85;9.18;;;17.10;99.90;;;;;;5072341;28;20418;-86
2021/07/28 02:08:04;;;;;;;10.10;9.00;;;17.10;99.90;;;;;;5071955;28;20377;-86
2021/07/28 02:10:31;;;;;;;10.30;9.25;;;17.10;99.90;;;;;;5071883;28;20387;-86
2021/07/28 02:12:57;;;;;;;9.45;8.50;;;17.10;99.90;;;;;;5071873;28;20415;-87
2021/07/28 02:15:23;;;;;;;9.43;8.38;;;17.10;99.90;;;;;;5089906;28;20921;-85
2021/07/28 02:17:53;;;;;;;9.33;8.43;;;17.10;99.90;;;;;;5072370;28;20365;-86
2021/07/28 02:20:19;;;;;;;12.65;9.38;;;17.20;99.90;;;;;;5075653;28;20384;-86
2021/07/28 02:22:46;;;;;;;12.50;9.35;;;17.20;99.90;;;;;;5094209;28;20467;-86
2021/07/28 02:25:12;;;;;;;10.18;9.18;;;17.20;99.90;;;;;;5093994;28;20376;-86
2021/07/28 02:27:38;;;;;;;10.82;9.50;;;17.20;99.90;;;;;;5075735;28;20459;-87
2021/07/28 02:30:05;;;;;;;11.40;8.77;;;17.30;99.90;;;;;;5094048;28;20471;-86
2021/07/28 02:32:31;;;;;;;9.80;8.70;;;17.30;99.90;;;;;;5075547;28;20407;-87
2021/07/28 02:34:57;;;;;;;10.38;8.85;;;17.30;99.90;;;;;;5076034;28;20359;-87
2021/07/28 02:37:22;;;;;;;9.97;8.80;;;17.30;99.90;;;;;;5076175;28;20368;-87
2021/07/28 02:39:48;;;;;;;10.40;8.98;;;17.40;99.90;;;;;;5075573;28;20542;-86
2021/07/28 02:42:14;;;;;;;10.93;8.57;;;17.40;99.90;;;;;;5093768;28;20384;-85
2021/07/28 02:44:39;;;;;;;9.80;8.75;;;17.40;99.90;;;;;;5093909;28;20368;-87
2021/07/28 02:47:05;;;;;;;11.23;8.60;;;17.40;99.90;;;;;;5093816;28;20404;-84
2021/07/28 02:49:30;;;;;;;9.65;8.70;;;17.40;99.90;;;;;;5075639;28;20372;-86
2021/07/28 02:51:56;;;;;;;9.23;8.27;;;17.40;99.90;;;;;;5075173;28;20429;-86
2021/07/28 02:54:23;;;;;;;10.40;8.98;;;17.30;99.90;;;;;;5075365;28;20897;-86
2021/07/28 02:56:51;;;;;;;10.68;8.65;;;17.30;99.90;;;;;;5074957;28;20373;-87
2021/07/28 02:59:17;;;;;;;11.23;8.70;;;17.30;99.90;;;;;;5075046;28;20384;-86
2021/07/28 03:01:43;;;;;;;10.13;8.88;;;17.20;99.90;;;;;;5075223;28;20391;-86
2021/07/28 03:04:08;;;;;;;9.30;8.40;;;17.20;99.90;;;;;;5075230;28;20404;-86
2021/07/28 03:06:34;;;;;;;10.27;9.27;;;17.20;99.90;;;;;;5074995;28;20741;-86
2021/07/28 03:09:00;;;;;;;9.97;8.97;;;17.30;99.90;;;;;;5074914;28;20381;-87
2021/07/28 03:11:26;;;;;;;9.63;8.63;;;17.30;99.90;;;;;;5074982;28;20369;-87
2021/07/28 03:13:52;;;;;;;10.50;9.25;;;17.40;99.90;;;;;;5093154;28;20400;-85
2021/07/28 03:16:17;;;;;;;10.18;9.18;;;17.40;99.90;;;;;;5074779;28;20387;-86
2021/07/28 03:18:43;;;;;;;10.53;8.47;;;17.40;99.90;;;;;;5074906;28;20881;-86
2021/07/28 03:21:09;;;;;;;11.90;8.75;;;17.50;99.90;;;;;;5075119;28;20381;-88
2021/07/28 03:23:35;;;;;;;9.60;8.60;;;17.50;99.90;;;;;;5093120;28;20380;-86
2021/07/28 03:26:01;;;;;;;11.02;8.57;;;17.60;99.90;;;;;;5075214;28;20888;-87
2021/07/28 03:28:26;;;;;;;9.83;8.53;;;17.60;99.90;;;;;;5074893;28;20935;-87
2021/07/28 03:30:52;;;;;;;10.40;8.88;;;17.70;99.90;;;;;;5074861;28;20384;-85
2021/07/28 03:33:18;;;;;;;10.70;8.57;;;17.60;99.90;;;;;;5074764;28;20439;-87
2021/07/28 03:35:44;;;;;;;11.65;8.63;;;17.70;99.90;;;;;;5074740;28;20372;-87
2021/07/28 03:38:11;;;;;;;10.57;8.57;;;17.60;99.90;;;;;;5074635;28;20399;-88
2021/07/28 03:40:37;;;;;;;10.80;8.80;;;17.70;99.90;;;;;;5092800;28;20384;-87
2021/07/28 03:43:03;;;;;;;10.02;8.80;;;17.70;99.90;;;;;;5074567;28;20384;-88
2021/07/28 03:45:28;;;;;;;10.75;8.93;;;17.80;99.90;;;;;;5092458;28;20734;-85
2021/07/28 03:47:54;;;;;;;9.40;8.50;;;17.90;99.90;;;;;;5092673;28;20373;-84
2021/07/28 03:50:19;;;;;;;9.87;8.87;;;18.00;99.90;;;;;;5092503;28;20909;-84
2021/07/28 03:52:45;;;;;;;10.00;8.33;;;18.00;99.90;;;;;;5073985;28;20469;-84
2021/07/28 03:55:11;;;;;;;10.47;8.67;;;18.10;99.90;;;;;;5092324;28;20731;-84
2021/07/28 03:57:37;;;;;;;10.67;9.67;;;18.20;99.90;;;;;;5074325;28;20380;-84
2021/07/28 04:00:04;;;;;;;11.80;9.73;;;18.20;99.90;;;;;;5092382;28;20373;-84
2021/07/28 04:02:30;;;;;;;10.40;9.35;;;18.20;99.90;;;;;;5092086;28;20394;-84
2021/07/28 04:04:55;;;;;;;10.93;9.93;;;18.20;99.90;;;;;;5092229;28;20929;-84
2021/07/28 04:07:21;;;;;;;11.18;10.13;;;18.20;99.90;;;;;;5073671;28;20377;-84
2021/07/28 04:09:47;;;;;;;10.63;9.53;;;18.20;99.90;;;;;;5092185;28;20407;-83
2021/07/28 04:12:13;;;;;;;15.75;10.05;;;18.20;99.90;;;;;;5073855;28;20384;-83
2021/07/28 04:14:38;;;;;;;11.40;9.97;;;18.10;99.90;;;;;;5091809;28;20738;-84
2021/07/28 04:17:04;;;;;;;11.57;10.38;;;18.10;99.90;;;;;;5091942;28;20461;-84
2021/07/28 04:19:30;;;;;;;12.63;10.05;;;18.10;99.90;;;;;;5073657;28;20379;-84
2021/07/28 04:21:55;;;;;;;10.83;9.73;;;18.10;99.90;;;;;;5073983;28;20878;-84
2021/07/28 04:24:21;;;;;;;11.80;10.60;;;18.10;99.90;;;;;;5073285;28;20886;-84
2021/07/28 04:26:46;;;;;;;11.50;10.40;;;18.20;99.90;;;;;;5091549;28;20716;-84
2021/07/28 04:29:12;;;;;;;11.75;10.23;;;18.20;99.90;;;;;;5091404;28;20384;-85
2021/07/28 04:31:37;;;;;;;12.17;10.07;;;18.30;99.90;;;;;;5073449;28;20996;-84
2021/07/28 04:34:03;;;;;;;11.13;9.90;;;18.40;99.90;;;;;;5073283;28;20783;-84
2021/07/28 04:36:29;;;;;;;10.77;9.68;;;18.40;99.90;;;;;;5073258;28;20750;-84
2021/07/28 04:38:54;;;;;;;11.07;9.83;;;18.50;99.90;;;;;;5073155;28;20459;-84
2021/07/28 04:41:20;;;;;;;11.02;9.88;;;18.50;99.90;;;;;;5072520;28;20381;-84
2021/07/28 04:43:45;;;;;;;14.97;9.80;;;18.50;99.90;;;;;;5073049;28;20419;-84
2021/07/28 04:46:11;;;;;;;11.38;9.98;;;18.50;99.90;;;;;;5072810;28;20410;-84
2021/07/28 04:48:37;;;;;;;10.30;9.23;;;18.50;99.90;;;;;;5072900;28;20372;-83
2021/07/28 04:51:03;;;;;;;10.55;9.45;;;18.60;99.90;;;;;;5073055;28;20869;-83
2021/07/28 04:53:28;;;;;;;10.17;9.27;;;18.60;99.90;;;;;;5090828;28;20505;-83
2021/07/28 04:55:56;;;;;;;10.68;9.57;;;18.60;99.90;;;;;;5072917;28;20447;-84
2021/07/28 04:58:22;;;;;;;10.98;9.88;;;18.70;99.90;;;;;;5091013;28;20384;-84
2021/07/28 05:00:48;;;;;;;11.95;10.75;;;18.70;99.90;;;;;;5091240;28;20388;-84
2021/07/28 05:03:14;;;;;;;12.07;9.95;;;18.80;99.90;;;;;;5091014;28;20888;-83
2021/07/28 05:05:40;;;;;;;11.10;9.90;;;18.80;99.90;;;;;;5072909;28;20377;-84
2021/07/28 05:08:06;;;;;;;11.55;10.38;;;18.80;99.90;;;;;;5091676;28;20375;-84
2021/07/28 05:10:32;;;;;;;11.93;10.60;;;18.80;99.90;;;;;;5091257;28;20455;-84
2021/07/28 05:12:57;;;;;;;11.57;9.90;;;18.90;99.90;;;;;;5072608;28;20406;-84
2021/07/28 05:15:23;;;;;;;11.60;10.00;;;18.90;99.90;;;;;;5072652;28;20399;-84
2021/07/28 05:17:48;;;;;;;11.50;10.17;;;19.00;99.90;;;;;;5090868;28;20373;-84
2021/07/28 05:20:16;;;;;;;11.02;9.88;;;19.10;99.90;;;;;;5072524;28;20384;-85
2021/07/28 05:22:42;;;;;;;11.18;9.75;;;19.20;99.90;;;;;;5072828;28;20388;-84
2021/07/28 05:25:08;;;;;;;11.43;9.47;;;19.30;99.90;;;;;;5072599;28;20385;-84
2021/07/28 05:27:34;;;;;;;10.45;8.85;;;19.30;99.90;;;;;;5072627;28;20458;-85
2021/07/28 05:30:00;;;;;;;11.07;8.88;;;19.40;99.90;;;;;;5072490;28;20479;-84
2021/07/28 05:32:26;;;;;;;11.73;8.50;;;19.60;99.90;;;;;;5072350;28;20391;-85
2021/07/28 05:34:52;;;;;;;12.70;9.82;;;19.60;99.90;;;;;;5072485;28;20372;-84
2021/07/28 05:37:18;;;;;;;12.77;9.43;;;19.70;99.90;;;;;;5090335;28;20380;-86
2021/07/28 05:39:45;;;;;;;13.00;9.20;;;19.70;99.90;;;;;;5072481;28;20857;-85
2021/07/28 05:42:11;;;;;;;12.35;9.57;;;19.80;99.90;;;;;;5072417;28;20380;-85
2021/07/28 05:44:37;;;;;;;14.10;8.82;;;19.90;99.90;;;;;;5072368;28;20707;-85
2021/07/28 05:47:02;;;;;;;12.33;8.60;;;20.00;99.90;;;;;;5090571;28;20377;-85
2021/07/28 05:49:28;;;;;;;10.73;8.75;;;20.20;99.90;;;;;;5072465;28;20381;-84
2021/07/28 05:51:54;;;;;;;10.13;8.70;;;20.40;99.90;;;;;;5090292;28;20396;-85
2021/07/28 05:54:19;;;;;;;12.07;9.13;;;20.30;99.90;;;;;;5092893;28;20372;-85
2021/07/28 05:56:45;;;;;;;12.35;9.90;;;20.40;99.90;;;;;;5076970;28;20383;-87
2021/07/28 05:59:12;;;;;;;12.30;9.60;;;20.40;99.90;;;;;;5077153;28;20372;-86
2021/07/28 06:01:37;;;;;;;11.65;9.27;;;20.40;99.90;;;;;;5076681;28;20382;-87
2021/07/28 06:04:03;;;;;;;10.77;9.00;;;20.50;99.90;;;;;;5076386;28;20380;-85
2021/07/28 06:06:29;;;;;;;12.40;9.00;;;20.60;99.90;;;;;;5094241;28;20862;-85
2021/07/28 06:08:55;;;;;;;10.67;9.03;;;20.70;99.90;;;;;;5076247;28;20901;-84
2021/07/28 06:11:21;;;;;;;11.10;8.95;;;20.80;99.90;;;;;;5094212;28;20377;-86
2021/07/28 06:13:46;;;;;;;12.13;9.30;;;20.90;99.90;;;;;;5094133;28;20444;-85
2021/07/28 06:16:12;;;;;;;11.03;8.60;;;21.10;99.90;;;;;;5076182;28;20798;-85
2021/07/28 06:18:37;;;;;;;11.00;8.93;;;21.20;99.90;;;;;;5076086;28;20407;-86
2021/07/28 06:21:03;;;;;;;8.93;8.00;;;21.40;99.90;;;;;;5094201;28;20399;-87
2021/07/28 06:23:29;;;;;;;11.10;8.30;;;21.60;99.90;;;;;;5075896;28;20365;-86
2021/07/28 06:25:55;;;;;;;9.38;7.63;;;21.70;99.90;;;;;;5076057;28;20877;-86
2021/07/28 06:28:20;;;;;;;7.82;7.03;;;21.90;99.90;;;;;;5075754;28;20874;-87
2021/07/28 06:30:52;;;;;;;9.47;7.47;;;22.00;99.90;;;;;;5094084;28;20376;-87
2021/07/28 06:33:22;;;;;;;8.82;7.38;;;22.10;99.90;;;;;;5075626;28;20490;-86
2021/07/28 06:35:52;;;;;;;8.02;6.60;;;22.00;99.90;;;;;;5066523;28;20440;-86
2021/07/28 06:38:19;;;;;;;8.27;6.72;;;21.90;99.90;;;;;;5074952;28;20380;-86
2021/07/28 06:40:45;;;;;;;9.32;6.80;;;21.70;99.90;;;;;;5080056;28;20386;-85
2021/07/28 06:43:11;;;;;;;11.17;7.30;;;21.40;99.90;;;;;;5094249;28;20380;-87
2021/07/28 06:45:41;;;;;;;10.13;7.30;;;21.00;99.90;;;;;;5065923;28;20386;-89
2021/07/28 06:48:10;;;;;;;12.23;7.97;;;20.80;99.90;;;;;;5055188;28;20386;-88
2021/07/28 06:50:36;;;;;;;8.35;7.43;;;20.50;99.90;;;;;;5073752;28;20370;-86
2021/07/28 06:53:02;;;;;;;8.05;6.78;;;20.20;99.90;;;;;;5093403;28;20496;-86
2021/07/28 06:55:28;;;;;;;7.90;7.10;;;20.00;99.90;;;;;;5093840;28;20800;-87
2021/07/28 06:57:53;;;;;;;8.23;7.43;;;19.80;99.90;;;;;;5083009;28;20366;-87
2021/07/28 07:00:21;;;;;;;8.13;7.30;;;19.60;99.90;;;;;;5072927;28;20378;-89
2021/07/28 07:02:47;;;;;;;8.90;7.82;;;19.60;99.90;;;;;;5055297;28;20414;-88
2021/07/28 07:05:12;;;;;;;9.53;7.43;;;19.50;99.90;;;;;;5054799;28;20937;-87
2021/07/28 07:07:40;;;;;;;9.73;8.07;;;19.40;99.90;;;;;;5072974;28;20378;-90
2021/07/28 07:10:08;;;;;;;10.57;8.20;;;;;;;;;;5055253;28;20389;-86
2021/07/28 07:12:35;;;;;;;12.82;8.57;;;19.10;99.90;;;;;;5054731;28;20467;-88
2021/07/28 07:15:00;;;;;;;13.65;9.25;;;18.90;99.90;;;;;;5073311;28;20432;-86
2021/07/28 07:17:29;;;;;;;10.82;8.38;;;18.80;99.90;;;;;;5055032;28;20381;-87
2021/07/28 07:19:55;;;;;;;9.57;8.48;;;18.70;99.90;;;;;;5054744;28;20385;-86
2021/07/28 07:22:21;;;;;;;11.38;8.80;;;18.60;99.90;;;;;;5055145;28;20439;-85
2021/07/28 07:24:46;;;;;;;12.82;9.40;;;18.50;99.90;;;;;;5054736;28;20724;-86
2021/07/28 07:27:12;;;;;;;10.43;8.83;;;18.50;99.90;;;;;;5054774;28;20378;-85
2021/07/28 07:29:37;;;;;;;10.15;9.00;;;18.50;99.90;;;;;;5072668;28;20877;-84
2021/07/28 07:32:03;;;;;;;11.20;9.10;;;18.50;99.90;;;;;;5054478;28;20813;-84
2021/07/28 07:34:29;;;;;;;10.13;9.13;;;18.60;99.90;;;;;;5064987;28;20805;-84
2021/07/28 07:36:54;;;;;;;11.20;9.47;;;18.60;99.90;;;;;;5092965;28;20919;-84
2021/07/28 07:39:20;;;;;;;10.98;8.38;;;18.70;99.90;;;;;;5074267;28;20404;-84
2021/07/28 07:41:46;;;;;;;9.97;7.80;;;18.80;99.90;;;;;;5074679;28;20422;-86
2021/07/28 07:44:11;;;;;;;10.07;8.57;;;18.90;99.90;;;;;;5074309;28;20361;-86
2021/07/28 07:46:40;;;;;;;10.90;8.77;;;19.00;99.90;;;;;;5075053;28;20847;-88
2021/07/28 07:49:11;;;;;;;9.45;8.55;;;19.10;99.90;;;;;;5067888;28;20382;-87
2021/07/28 07:52:04;;;;;;;10.15;8.15;;;19.20;99.90;;;;;;5056251;28;20370;-88
2021/07/28 07:54:33;;;;;;;8.90;8.00;;;19.30;99.90;;;;;;5073991;28;20370;-87
2021/07/28 07:56:59;;;;;;;8.90;7.35;;;19.40;99.90;;;;;;5055498;28;20382;-86
2021/07/28 07:59:26;;;;;;;9.30;7.90;;;19.50;99.90;;;;;;5038120;28;20383;-86
2021/07/28 08:01:51;;;;;;;8.90;7.70;;;19.60;99.90;;;;;;5058274;28;20776;-85
2021/07/28 08:04:23;;;;;;;10.57;7.77;;;19.70;99.90;;;;;;5068788;28;20380;-86
2021/07/28 08:06:51;;;;;;;9.07;8.18;;;19.80;99.90;;;;;;5073515;28;20380;-86
2021/07/28 08:09:17;;;;;;;9.48;8.20;;;19.90;99.90;;;;;;5053316;28;20471;-86
2021/07/28 08:11:43;;;;;;;9.53;8.53;;;20.10;99.90;;;;;;5053696;28;20858;-85
2021/07/28 08:14:09;;;;;;;8.40;7.30;;;20.10;99.90;;;;;;5059235;28;20871;-86
2021/07/28 08:16:34;;;;;;;9.23;7.80;;;20.20;99.90;;;;;;5072545;28;20396;-86
2021/07/28 08:19:00;;;;;;;10.23;7.77;;;20.40;99.90;;;;;;5088825;28;20380;-88
2021/07/28 08:21:27;;;;;;;10.87;8.43;;;20.60;99.90;;;;;;5071345;28;20394;-86
2021/07/28 08:23:52;;;;;;;8.15;7.22;;;21.00;99.90;;;;;;5067768;28;20404;-86
2021/07/28 08:26:21;;;;;;;9.68;7.63;;;21.50;99.90;;;;;;5067127;28;20388;-88
2021/07/28 08:28:47;;;;;;;9.03;7.93;;;22.00;99.90;;;;;;5064339;28;20758;-88
2021/07/28 08:31:14;;;;;;;9.68;8.20;;;22.40;99.90;;;;;;5060463;28;20378;-85
2021/07/28 08:33:39;;;;;;;9.23;7.95;;;22.70;99.90;;;;;;5066965;28;20857;-85
2021/07/28 08:36:05;;;;;;;9.75;7.70;;;23.00;99.90;;;;;;5070294;28;20404;-86
2021/07/28 08:38:31;;;;;;;8.50;7.70;;;23.10;99.90;;;;;;5067991;28;20382;-87
2021/07/28 08:41:03;;;;;;;7.80;7.00;;;23.20;99.90;;;;;;5065432;28;20442;-86
2021/07/28 08:43:37;;;;;;;7.45;5.95;;;23.20;99.90;;;;;;5064044;28;20394;-87
2021/07/28 08:46:06;;;;;;;7.93;6.47;;;23.10;99.90;;;;;;5077144;28;20476;-86
2021/07/28 08:48:33;;;;;;;9.13;6.50;;;23.10;99.90;;;;;;5081263;28;20441;-85
2021/07/28 08:51:01;;;;;;;7.65;6.32;;;23.20;99.90;;;;;;5064935;28;20945;-88
2021/07/28 08:53:28;;;;;;;7.15;5.85;;;23.50;99.90;;;;;;5064256;28;20883;-87
2021/07/28 08:55:56;;;;;;;7.25;6.07;;;23.50;99.90;;;;;;5058900;28;20470;-85
2021/07/28 08:58:26;;;;;;;7.70;6.40;;;23.40;99.90;;;;;;5061075;28;20386;-88
2021/07/28 09:00:52;;;;;;;9.98;6.65;;;23.30;99.90;;;;;;5060981;28;20885;-86
2021/07/28 09:03:18;;;;;;;6.93;6.32;;;23.40;99.90;;;;;;5075189;28;20813;-90
2021/07/28 09:05:48;;;;;;;7.65;6.13;;;23.40;99.90;;;;;;5074757;28;20441;-89
2021/07/28 09:08:40;;;;;;;7.73;5.83;;;23.50;99.90;;;;;;5056647;28;20915;-87
2021/07/28 09:11:08;;;;;;;8.05;6.20;;;23.50;99.90;;;;;;5059213;28;20370;-87
2021/07/28 09:13:39;;;;;;;8.07;6.45;;;23.60;99.90;;;;;;5058222;28;20403;-88
2021/07/28 09:16:20;;;;;;;6.50;5.85;;;23.70;99.90;;;;;;5056376;28;20389;-89
2021/07/28 09:18:52;;;;;;;7.47;5.53;;;23.70;99.90;;;;;;5054508;28;20404;-88
2021/07/28 09:21:21;;;;;;;7.22;6.20;;;23.80;99.90;;;;;;5055220;28;20475;-87
2021/07/28 09:23:48;;;;;;;6.22;5.60;;;24.00;99.90;;;;;;5074512;28;20446;-86
2021/07/28 09:26:31;;;;;;;8.45;5.80;;;24.10;99.90;;;;;;5057352;28;20386;-87
2021/07/28 09:29:04;;;;;;;6.15;5.55;;;24.20;99.90;;;;;;5058304;28;20417;-87
2021/07/28 09:31:34;;;;;;;7.72;6.10;;;24.30;99.90;;;;;;5055976;28;20386;-89
2021/07/28 09:34:10;;;;;;;7.75;5.80;;;24.30;99.90;;;;;;5057893;28;20404;-89
2021/07/28 09:36:36;;;;;;;7.50;6.15;;;24.40;99.90;;;;;;5055618;28;20394;-87
2021/07/28 09:39:04;;;;;;;8.38;5.43;;;24.40;99.90;;;;;;5057049;28;20417;-87
2021/07/28 09:41:29;;;;;;;6.15;5.57;;;24.30;99.90;;;;;;5058551;28;20440;-87
2021/07/28 09:44:02;;;;;;;7.90;5.53;;;24.10;99.90;;;;;;5058416;28;20400;-86
2021/07/28 09:46:36;;;;;;;6.38;5.63;;;24.00;99.90;;;;;;5058964;28;20393;-87
2021/07/28 09:49:07;;;;;;;8.48;6.53;;;24.10;99.90;;;;;;5058372;28;20414;-87
2021/07/28 09:51:33;;;;;;;9.40;6.30;;;23.80;99.90;;;;;;5056186;28;20945;-87
2021/07/28 09:54:10;;;;;;;7.65;6.20;;;23.70;99.90;;;;;;5076683;28;20443;-89
2021/07/28 09:56:52;;;;;;;6.38;5.68;;;23.70;99.90;;;;;;5058728;28;20393;-86
2021/07/28 09:59:19;;;;;;;8.43;5.83;;;23.70;99.90;;;;;;5075912;28;20467;-89
2021/07/28 10:01:46;;;;;;;7.90;5.90;;;23.70;99.90;;;;;;5076428;28;20479;-88
2021/07/28 10:04:13;;;;;;;8.75;5.78;;;23.80;99.90;;;;;;5075465;28;20365;-87
2021/07/28 10:06:40;;;;;;;7.53;5.72;;;24.00;99.90;;;;;;5074799;28;20398;-88
2021/07/28 10:09:09;;;;;;;5.73;5.23;;;23.90;99.90;;;;;;5059062;28;20803;-87
2021/07/28 10:11:40;;;;;;;5.80;5.10;;;24.00;99.90;;;;;;5057031;28;20898;-88
2021/07/28 10:14:10;;;;;;;5.85;4.97;;;23.90;99.90;;;;;;5058388;28;20408;-87
2021/07/28 10:16:36;;;;;;;6.00;5.40;;;24.00;99.90;;;;;;5058245;28;20730;-87
2021/07/28 10:19:04;;;;;;;5.22;4.72;;;24.30;99.90;;;;;;5056078;28;20403;-89
2021/07/28 10:21:34;;;;;;;5.45;4.95;;;24.40;99.90;;;;;;5054454;28;20729;-87
2021/07/28 10:24:02;;;;;;;5.78;4.85;;;24.60;99.90;;;;;;5058508;28;20394;-87
2021/07/28 10:26:38;;;;;;;5.10;4.63;;;24.90;99.90;;;;;;5069571;28;20457;-85
2021/07/28 10:29:05;;;;;;;6.47;4.95;;;25.20;99.90;;;;;;5051680;28;20428;-87
2021/07/28 10:31:49;;;;;;;5.80;5.20;;;25.20;99.90;;;;;;5051663;28;20884;-87
2021/07/28 10:34:26;;;;;;;8.15;5.22;;;25.20;99.90;;;;;;5088026;28;20896;-87
2021/07/28 10:37:04;;;;;;;7.22;6.20;;;25.20;99.90;;;;;;5089972;28;20463;-89
2021/07/28 10:39:38;;;;;;;6.45;5.85;;;25.30;99.90;;;;;;5090787;28;20428;-88
2021/07/28 10:42:15;;;;;;;5.95;5.35;;;25.40;99.90;;;;;;5091941;28;20495;-87
2021/07/28 10:45:01;;;;;;;6.00;5.22;;;25.30;99.90;;;;;;5075616;28;20376;-88
2021/07/28 10:47:35;;;;;;;7.10;5.82;;;25.20;99.90;;;;;;5071148;28;20382;-89
2021/07/28 10:50:30;;;;;;;7.10;5.45;;;25.30;99.90;;;;;;5055337;28;20413;-89
2021/07/28 10:53:00;;;;;;;7.63;5.10;;;25.50;99.90;;;;;;5073237;28;20394;-88
2021/07/28 10:55:32;;;;;;;6.05;5.22;;;25.80;99.90;;;;;;5073078;28;20410;-90
2021/07/28 10:58:08;;;;;;;5.40;4.72;;;25.90;99.90;;;;;;5073376;28;20390;-91
2021/07/28 11:00:37;;;;;;;5.28;4.50;;;26.10;99.90;;;;;;5063199;28;20433;-87
2021/07/28 11:03:06;;;;;;;6.25;5.25;;;26.30;99.90;;;;;;5062557;28;20394;-90
2021/07/28 11:05:37;;;;;;;5.93;5.03;;;26.60;99.90;;;;;;5056987;28;20404;-89
2021/07/28 11:08:05;;;;;;;5.70;5.10;;;26.70;99.90;;;;;;5074888;28;20941;-89
2021/07/28 11:10:38;;;;;;;5.60;5.07;;;26.70;99.90;;;;;;5077678;28;20391;-90
2021/07/28 11:13:11;;;;;;;7.03;5.60;;;26.70;99.90;;;;;;5065099;28;20397;-88
2021/07/28 11:15:40;;;;;;;6.22;5.63;;;26.40;99.90;;;;;;5063640;28;20936;-89
2021/07/28 11:18:06;;;;;;;6.10;5.15;;;26.50;99.90;;;;;;5063798;28;20395;-88
2021/07/28 11:20:39;;;;;;;5.80;5.30;;;26.50;99.90;;;;;;5063158;28;20882;-88
2021/07/28 11:23:29;;;;;;;7.43;5.80;;;26.30;99.90;;;;;;5081606;28;20387;-86
2021/07/28 11:25:58;;;;;;;6.50;5.60;;;26.20;99.90;;;;;;5080912;28;20374;-87
2021/07/28 11:28:25;;;;;;;5.93;5.30;;;26.30;99.90;;;;;;5064568;28;20374;-88
2021/07/28 11:30:57;;;;;;;5.65;5.15;;;26.30;99.90;;;;;;5063178;28;20383;-88
2021/07/28 11:33:28;;;;;;;6.25;5.65;;;26.10;99.90;;;;;;5064293;28;20414;-89
2021/07/28 11:35:58;;;;;;;5.97;5.38;;;26.10;99.90;;;;;;5063294;28;20463;-87
2021/07/28 11:38:42;;;;;;;6.93;5.60;;;26.00;99.90;;;;;;5063620;28;20874;-88
2021/07/28 11:41:11;;;;;;;6.22;5.63;;;26.10;99.90;;;;;;5065189;28;20391;-87
2021/07/28 11:43:41;;;;;;;7.22;5.85;;;26.10;99.90;;;;;;5062650;28;20394;-90
2021/07/28 11:46:18;;;;;;;6.30;5.70;;;26.00;99.90;;;;;;5062928;28;20392;-89
2021/07/28 11:48:50;;;;;;;6.15;5.20;;;26.00;99.90;;;;;;5073556;28;20391;-87
2021/07/28 11:51:35;;;;;;;7.57;5.50;;;26.10;99.90;;;;;;5070147;28;20381;-88
2021/07/28 11:54:14;;;;;;;7.65;5.18;;;26.10;99.90;;;;;;5057908;28;20911;-87
2021/07/28 11:56:53;;;;;;;6.13;4.97;;;26.10;99.90;;;;;;5061087;28;20390;-88
2021/07/28 11:59:29;;;;;;;5.90;5.30;;;26.10;99.90;;;;;;5062158;28;20468;-87
2021/07/28 12:01:57;;;;;;;5.63;5.03;;;26.30;99.90;;;;;;5063852;28;20385;-87
2021/07/28 12:04:24;;;;;;;5.43;4.90;;;26.40;99.90;;;;;;5061874;28;20394;-88
2021/07/28 12:06:51;;;;;;;6.35;5.05;;;26.40;99.90;;;;;;5081435;28;20417;-89
2021/07/28 12:09:22;;;;;;;5.57;4.97;;;26.50;99.90;;;;;;5077923;28;20721;-87
2021/07/28 12:11:54;;;;;;;7.68;5.38;;;26.60;99.90;;;;;;5062320;28;20386;-89
2021/07/28 12:14:24;;;;;;;5.78;5.05;;;26.80;99.90;;;;;;5077864;28;20445;-87
2021/07/28 12:16:50;;;;;;;6.22;5.07;;;26.80;99.90;;;;;;5059741;28;20900;-89
2021/07/28 12:19:32;;;;;;;9.95;5.70;;;26.80;99.90;;;;;;5058883;28;20779;-90
2021/07/28 12:22:09;;;;;;;5.55;4.95;;;26.70;99.90;;;;;;5077373;28;20914;-89
2021/07/28 12:24:35;;;;;;;6.32;5.03;;;26.50;99.90;;;;;;5062234;28;20398;-89
2021/07/28 12:27:29;;;;;;;5.53;5.00;;;26.40;99.90;;;;;;5080891;28;20393;-88
2021/07/28 12:29:59;;;;;;;6.22;5.10;;;26.40;99.90;;;;;;5061832;28;20386;-89
2021/07/28 12:32:43;;;;;;;6.43;4.05;;;26.40;99.90;;;;;;5063558;28;20401;-91
2021/07/28 12:35:14;;;;;;;5.15;4.65;;;26.60;99.90;;;;;;5057891;28;20390;-89
2021/07/28 12:37:44;;;;;;;5.45;4.63;;;26.70;99.90;;;;;;5065097;28;20451;-87
2021/07/28 12:40:10;;;;;;;5.43;4.82;;;26.70;99.90;;;;;;5064968;28;20901;-86
2021/07/28 12:42:37;;;;;;;5.15;4.60;;;26.70;99.90;;;;;;5069940;28;20421;-87
2021/07/28 12:45:10;;;;;;;5.60;4.70;;;26.60;99.90;;;;;;5081625;28;20922;-87
2021/07/28 12:47:37;;;;;;;7.60;4.63;;;26.70;99.90;;;;;;5080243;28;20459;-90
2021/07/28 12:50:03;;;;;;;6.90;4.57;;;26.80;99.90;;;;;;5063148;28;20388;-89